Time;durP1;ratioP1;P1;durP2;ratioP2;P2;SDS_P1;SDS_P2;PMS_P1;PMS_P2;Temp;Humidity;BMP_temperature;BMP_pressure;BME280_temperature;BME280_humidity;BME280_pressure;Samples;Min_cycle;Max_cycle;Signal;HPM_P1;HPM_P2
2023/02/23 00:01:36;;;;;;;26.88;13.05;;;6.10;99.90;;;;;;6270397;22;20374;-81
2023/02/23 00:04:02;;;;;;;30.55;14.10;;;6.00;99.90;;;;;;6272502;22;20342;-84
2023/02/23 00:06:30;;;;;;;27.63;13.75;;;6.10;99.90;;;;;;6271104;22;20425;-82
2023/02/23 00:08:57;;;;;;;29.15;15.07;;;6.10;99.90;;;;;;6270233;22;20484;-83
2023/02/23 00:11:23;;;;;;;29.67;14.15;;;6.00;99.90;;;;;;6271874;22;20353;-83
2023/02/23 00:13:49;;;;;;;29.87;14.40;;;6.10;99.90;;;;;;6272448;22;20372;-82
2023/02/23 00:16:18;;;;;;;29.90;14.38;;;6.10;99.90;;;;;;6272934;22;20343;-81
2023/02/23 00:18:49;;;;;;;29.80;15.70;;;6.00;99.90;;;;;;6273699;22;20362;-82
2023/02/23 00:21:21;;;;;;;32.80;15.02;;;6.00;99.90;;;;;;6246052;22;20849;-82
2023/02/23 00:23:57;;;;;;;30.35;15.55;;;6.00;99.90;;;;;;6273353;22;20338;-83
2023/02/23 00:26:24;;;;;;;30.15;15.15;;;6.00;99.90;;;;;;6273075;22;20342;-81
2023/02/23 00:28:52;;;;;;;33.15;14.88;;;6.00;99.90;;;;;;6276199;22;20354;-83
2023/02/23 00:31:24;;;;;;;28.77;15.13;;;6.00;99.90;;;;;;6246892;22;20350;-83
2023/02/23 00:33:53;;;;;;;31.33;15.52;;;6.00;99.90;;;;;;6273147;22;20840;-81
2023/02/23 00:36:21;;;;;;;33.97;15.82;;;6.00;99.90;;;;;;6274021;22;20420;-80
2023/02/23 00:38:46;;;;;;;30.17;15.57;;;5.90;99.90;;;;;;6273396;22;20370;-80
2023/02/23 00:41:20;;;;;;;26.45;15.18;;;5.80;99.90;;;;;;6273725;22;20349;-82
2023/02/23 00:43:48;;;;;;;29.98;15.48;;;5.90;99.90;;;;;;6244648;22;20358;-83
2023/02/23 00:46:20;;;;;;;32.80;16.20;;;5.80;99.90;;;;;;6246346;22;20762;-83
2023/02/23 00:48:46;;;;;;;31.93;16.30;;;5.70;99.90;;;;;;6245497;22;20346;-82
2023/02/23 00:51:17;;;;;;;29.23;15.45;;;5.70;99.90;;;;;;6272975;22;20347;-81
2023/02/23 00:53:43;;;;;;;29.33;15.55;;;5.80;99.90;;;;;;6271167;22;20915;-80
2023/02/23 00:56:12;;;;;;;30.87;16.10;;;5.70;99.90;;;;;;6273850;22;20429;-82
2023/02/23 00:58:38;;;;;;;32.07;16.47;;;5.70;99.90;;;;;;6245884;22;20362;-81
2023/02/23 01:01:06;;;;;;;30.20;16.80;;;5.70;99.90;;;;;;6245080;22;20404;-81
2023/02/23 01:03:31;;;;;;;29.10;16.17;;;5.80;99.90;;;;;;6270722;22;20350;-83
2023/02/23 01:06:04;;;;;;;30.08;16.17;;;5.80;99.90;;;;;;6273330;22;20873;-80
2023/02/23 01:08:31;;;;;;;30.67;16.43;;;5.70;99.90;;;;;;6245414;22;20342;-82
2023/02/23 01:10:57;;;;;;;34.60;17.42;;;5.70;99.90;;;;;;6272119;22;20572;-82
2023/02/23 01:13:25;;;;;;;31.73;17.67;;;5.70;99.90;;;;;;6246116;22;20461;-82
2023/02/23 01:15:51;;;;;;;39.97;19.00;;;5.60;99.90;;;;;;6244089;22;20365;-81
2023/02/23 01:18:19;;;;;;;30.30;17.05;;;5.60;99.90;;;;;;6271778;22;20347;-83
2023/02/23 01:20:45;;;;;;;40.03;19.20;;;5.60;99.90;;;;;;6272757;22;20848;-81
2023/02/23 01:23:14;;;;;;;30.10;17.50;;;5.50;99.90;;;;;;6272983;22;20346;-83
2023/02/23 01:25:42;;;;;;;31.60;18.02;;;5.50;99.90;;;;;;6273020;22;20367;-82
2023/02/23 01:28:11;;;;;;;37.92;19.08;;;5.70;99.90;;;;;;6270808;22;21117;-81
2023/02/23 01:30:38;;;;;;;35.60;18.00;;;5.60;99.90;;;;;;6273267;22;20420;-81
2023/02/23 01:33:04;;;;;;;33.20;18.92;;;5.60;99.90;;;;;;6272680;22;20762;-83
2023/02/23 01:35:32;;;;;;;32.03;18.48;;;5.60;99.90;;;;;;6273331;22;20349;-81
2023/02/23 01:37:58;;;;;;;34.30;19.67;;;5.60;99.90;;;;;;6243716;22;20363;-81
2023/02/23 01:40:28;;;;;;;35.08;19.02;;;5.70;99.90;;;;;;6273730;22;20412;-82
2023/02/23 01:43:24;;;;;;;36.22;19.75;;;5.50;99.90;;;;;;6273026;22;20346;-81
2023/02/23 01:45:53;;;;;;;37.13;19.40;;;5.60;99.90;;;;;;6272987;22;20369;-81
2023/02/23 01:48:22;;;;;;;31.52;18.77;;;5.60;99.90;;;;;;6270389;22;20471;-83
2023/02/23 01:51:11;;;;;;;38.25;20.50;;;5.60;99.90;;;;;;6273192;22;20472;-82
2023/02/23 01:53:41;;;;;;;35.35;20.15;;;5.50;99.90;;;;;;6266470;22;20371;-81
2023/02/23 01:56:12;;;;;;;35.58;19.75;;;5.60;99.90;;;;;;6271926;22;20809;-83
2023/02/23 01:58:42;;;;;;;31.88;19.13;;;5.50;99.90;;;;;;6271345;22;20361;-80
2023/02/23 02:01:09;;;;;;;35.35;19.85;;;5.50;99.90;;;;;;6271453;22;20363;-81
2023/02/23 02:03:42;;;;;;;33.95;20.63;;;5.50;99.90;;;;;;6244437;22;20343;-83
2023/02/23 02:06:13;;;;;;;37.67;20.77;;;5.30;99.90;;;;;;6271014;22;20437;-83
2023/02/23 02:08:44;;;;;;;34.38;20.48;;;5.40;99.90;;;;;;6269845;22;20390;-83
2023/02/23 02:11:35;;;;;;;32.10;20.48;;;5.40;99.90;;;;;;6245225;22;20347;-83
2023/02/23 02:14:14;;;;;;;36.00;20.15;;;5.50;99.90;;;;;;6267987;22;20473;-84
2023/02/23 02:17:05;;;;;;;32.13;19.90;;;5.60;99.90;;;;;;6242162;22;20864;-82
2023/02/23 02:20:25;;;;;;;38.03;21.02;;;5.50;99.90;;;;;;6272206;22;20756;-82
2023/02/23 02:22:59;;;;;;;36.37;21.37;;;5.40;99.90;;;;;;6246217;22;20713;-84
2023/02/23 02:25:32;;;;;;;31.83;20.50;;;5.40;99.90;;;;;;6270896;22;20829;-84
2023/02/23 02:28:29;;;;;;;32.55;21.30;;;5.30;99.90;;;;;;6272322;22;20353;-84
2023/02/23 02:31:14;;;;;;;35.75;20.17;;;5.40;99.90;;;;;;6272018;22;20342;-82
2023/02/23 02:34:17;;;;;;;38.40;21.75;;;5.40;99.90;;;;;;6272904;22;20385;-83
2023/02/23 02:37:05;;;;;;;36.45;22.15;;;5.30;99.90;;;;;;6270904;22;20490;-82
2023/02/23 02:39:53;;;;;;;35.85;22.75;;;5.40;99.90;;;;;;6245353;22;20394;-84
2023/02/23 02:42:32;;;;;;;38.42;22.23;;;5.30;99.90;;;;;;6271043;22;20341;-82
2023/02/23 02:45:27;;;;;;;34.38;21.50;;;5.30;99.90;;;;;;6273204;22;20354;-81
2023/02/23 02:48:02;;;;;;;40.92;23.08;;;5.30;99.90;;;;;;6251710;22;20361;-81
2023/02/23 02:50:45;;;;;;;37.33;22.07;;;5.30;99.90;;;;;;6271156;22;20371;-83
2023/02/23 02:53:25;;;;;;;37.50;22.30;;;5.20;99.90;;;;;;6272399;22;20366;-80
2023/02/23 02:55:55;;;;;;;36.88;22.50;;;5.30;99.90;;;;;;6242086;22;20404;-84
2023/02/23 02:58:24;;;;;;;39.55;22.90;;;5.30;99.90;;;;;;6240158;22;20371;-81
2023/02/23 04:18:56;;;;;;;39.97;25.30;;;4.40;99.90;;;;;;6240779;22;20348;-81
2023/02/23 04:21:22;;;;;;;43.28;25.67;;;4.30;99.90;;;;;;6240801;22;20343;-82
2023/02/23 04:23:48;;;;;;;37.80;23.98;;;4.40;99.90;;;;;;6237998;23;20363;-83
2023/02/23 04:26:14;;;;;;;40.93;26.17;;;4.40;99.90;;;;;;6241153;22;20345;-83
2023/02/23 04:28:39;;;;;;;47.50;26.47;;;4.30;99.90;;;;;;6239198;23;20344;-83
2023/02/23 04:31:05;;;;;;;38.13;25.23;;;4.20;99.90;;;;;;6240545;22;20620;-83
2023/02/23 04:33:30;;;;;;;39.30;24.60;;;4.30;99.90;;;;;;6239845;22;20422;-82
2023/02/23 04:35:56;;;;;;;37.20;24.45;;;4.30;99.90;;;;;;6240876;22;20818;-80
2023/02/23 04:38:22;;;;;;;46.77;26.90;;;4.30;99.90;;;;;;6240914;22;20804;-81
2023/02/23 04:40:48;;;;;;;44.90;26.95;;;4.20;99.90;;;;;;6240059;22;20348;-82
2023/02/23 04:43:14;;;;;;;41.70;25.43;;;4.20;99.90;;;;;;6239938;22;20848;-83
2023/02/23 04:45:40;;;;;;;42.92;27.25;;;4.20;99.90;;;;;;6241303;22;20356;-83
2023/02/23 04:48:06;;;;;;;41.15;26.45;;;4.20;99.90;;;;;;6240821;22;20427;-82
2023/02/23 04:50:32;;;;;;;44.90;28.07;;;4.20;99.90;;;;;;6240160;22;20783;-82
2023/02/23 04:52:58;;;;;;;41.13;27.03;;;4.10;99.90;;;;;;6240925;22;20368;-82
2023/02/23 04:55:25;;;;;;;40.80;27.93;;;4.20;99.90;;;;;;6241475;22;21042;-82
2023/02/23 04:57:55;;;;;;;46.70;27.63;;;4.00;99.90;;;;;;6237626;23;20680;-83
2023/02/23 05:00:21;;;;;;;44.17;27.05;;;4.00;99.90;;;;;;6242350;22;20418;-83
2023/02/23 05:02:46;;;;;;;41.23;27.13;;;4.00;99.90;;;;;;6242099;22;20773;-80
2023/02/23 05:05:12;;;;;;;49.83;28.80;;;4.00;99.90;;;;;;6241953;22;20814;-82
2023/02/23 05:07:38;;;;;;;43.40;26.90;;;4.10;99.90;;;;;;6243083;22;20395;-79
2023/02/23 05:10:05;;;;;;;41.30;26.70;;;4.00;99.90;;;;;;6242999;22;20375;-83
2023/02/23 05:12:31;;;;;;;38.70;27.33;;;4.10;99.90;;;;;;6242873;22;20365;-82
2023/02/23 05:14:57;;;;;;;43.50;27.97;;;4.00;99.90;;;;;;6240772;22;20359;-83
2023/02/23 05:17:23;;;;;;;44.88;28.85;;;4.00;99.90;;;;;;6240849;23;20340;-81
2023/02/23 05:19:49;;;;;;;43.42;28.35;;;3.90;99.90;;;;;;6242611;22;20683;-82
2023/02/23 05:22:15;;;;;;;45.22;28.67;;;3.90;99.90;;;;;;6240877;22;20332;-84
2023/02/23 05:24:40;;;;;;;48.15;29.25;;;3.80;99.90;;;;;;6243269;22;20788;-82
2023/02/23 05:27:12;;;;;;;42.65;27.65;;;3.90;99.90;;;;;;6242417;22;20343;-83
2023/02/23 05:29:38;;;;;;;46.45;27.80;;;3.80;99.90;;;;;;6243102;22;20455;-82
2023/02/23 05:32:04;;;;;;;42.25;27.10;;;3.80;99.90;;;;;;6242218;22;20372;-83
2023/02/23 05:34:29;;;;;;;45.50;28.55;;;3.90;99.90;;;;;;6241516;23;20420;-83
2023/02/23 05:36:55;;;;;;;46.33;29.63;;;3.90;99.90;;;;;;6242311;22;20349;-83
2023/02/23 05:39:21;;;;;;;45.03;28.40;;;3.70;99.90;;;;;;6243723;22;20368;-83
2023/02/23 05:41:46;;;;;;;45.47;29.60;;;3.70;99.90;;;;;;6241777;23;20352;-84
2023/02/23 05:44:12;;;;;;;50.40;29.85;;;3.70;99.90;;;;;;6242029;22;20360;-83
2023/02/23 05:46:38;;;;;;;39.72;26.73;;;3.70;99.90;;;;;;6242720;22;20871;-81
2023/02/23 05:49:04;;;;;;;44.13;28.20;;;3.60;99.90;;;;;;6242393;22;20344;-82
2023/02/23 05:51:33;;;;;;;39.90;27.10;;;3.70;99.90;;;;;;6242052;22;20434;-82
2023/02/23 05:53:59;;;;;;;44.00;27.15;;;3.60;99.90;;;;;;6242242;22;20844;-84
2023/02/23 05:56:25;;;;;;;40.75;26.33;;;3.60;99.90;;;;;;6243913;22;20359;-82
2023/02/23 05:58:53;;;;;;;38.63;26.20;;;3.40;99.90;;;;;;6243761;22;20340;-85
2023/02/23 06:01:20;;;;;;;37.70;26.70;;;3.20;99.90;;;;;;6239651;23;20363;-82
2023/02/23 06:03:46;;;;;;;39.30;26.58;;;3.10;99.90;;;;;;6243527;22;20351;-85
2023/02/23 06:06:12;;;;;;;37.95;25.92;;;3.00;99.90;;;;;;6242233;22;20337;-82
2023/02/23 06:08:37;;;;;;;44.03;26.60;;;3.00;99.90;;;;;;6242176;22;20410;-81
2023/02/23 06:11:03;;;;;;;42.50;26.95;;;3.00;99.90;;;;;;6239769;23;20665;-82
2023/02/23 06:13:30;;;;;;;41.53;27.40;;;2.90;99.90;;;;;;6243027;22;20399;-83
2023/02/23 06:15:56;;;;;;;42.17;27.80;;;2.70;99.90;;;;;;6241509;22;20340;-83
2023/02/23 06:18:22;;;;;;;41.47;27.00;;;2.80;99.90;;;;;;6241930;22;20649;-84
2023/02/23 06:20:48;;;;;;;40.08;27.63;;;2.70;99.90;;;;;;6240669;22;20364;-81
2023/02/23 06:23:17;;;;;;;44.35;27.95;;;2.60;99.90;;;;;;6242692;22;20375;-81
2023/02/23 06:25:45;;;;;;;44.83;29.45;;;2.80;99.90;;;;;;6242349;22;20352;-82
2023/02/23 06:28:11;;;;;;;38.17;27.52;;;2.90;99.90;;;;;;6241907;22;20379;-81
2023/02/23 06:30:37;;;;;;;49.38;33.22;;;2.90;99.90;;;;;;6241640;22;20360;-81
2023/02/23 06:33:04;;;;;;;46.20;31.70;;;2.90;99.90;;;;;;6240861;23;20577;-81
2023/02/23 06:35:31;;;;;;;48.35;31.75;;;2.80;99.90;;;;;;6243972;23;20352;-80
2023/02/23 06:37:58;;;;;;;50.58;32.28;;;3.00;99.90;;;;;;6240766;23;20352;-83
2023/02/23 06:40:24;;;;;;;46.17;31.75;;;3.00;99.90;;;;;;6242432;22;20423;-81
2023/02/23 06:42:50;;;;;;;55.55;32.97;;;3.20;99.90;;;;;;6240939;22;20872;-81
2023/02/23 06:45:16;;;;;;;51.13;31.60;;;3.10;99.90;;;;;;6241405;22;20360;-82
2023/02/23 06:47:43;;;;;;;51.58;32.30;;;3.40;99.90;;;;;;6240482;23;20428;-84
2023/02/23 06:50:09;;;;;;;54.33;32.67;;;3.40;99.90;;;;;;6241959;22;20406;-81
2023/02/23 06:52:35;;;;;;;43.60;29.80;;;3.50;99.90;;;;;;6242348;22;20392;-82
2023/02/23 06:55:01;;;;;;;48.13;31.05;;;3.60;99.90;;;;;;6241588;22;20367;-84
2023/02/23 06:57:27;;;;;;;46.45;29.98;;;3.70;99.90;;;;;;6242184;22;20348;-82
2023/02/23 06:59:52;;;;;;;47.00;29.20;;;3.80;99.90;;;;;;6240883;22;20663;-82
2023/02/23 07:02:18;;;;;;;48.80;31.20;;;4.00;99.90;;;;;;6242379;22;20402;-81
2023/02/23 07:04:44;;;;;;;44.97;29.63;;;4.00;99.90;;;;;;6239209;23;20364;-83
2023/02/23 07:07:11;;;;;;;44.47;27.50;;;4.00;99.90;;;;;;6240499;23;20375;-83
2023/02/23 07:09:39;;;;;;;44.07;27.67;;;4.10;99.90;;;;;;6239072;23;20843;-83
2023/02/23 07:12:05;;;;;;;46.97;29.17;;;4.20;99.90;;;;;;6241770;22;20348;-83
2023/02/23 07:14:32;;;;;;;46.38;28.40;;;4.20;99.90;;;;;;6238444;23;20361;-84
2023/02/23 07:16:57;;;;;;;42.63;27.42;;;4.20;99.90;;;;;;6240177;23;20410;-83
2023/02/23 07:19:23;;;;;;;45.47;27.90;;;4.40;99.90;;;;;;6241761;22;20738;-86
2023/02/23 07:21:49;;;;;;;46.67;27.52;;;4.20;99.90;;;;;;6243003;22;21086;-86
2023/02/23 07:24:15;;;;;;;41.60;27.67;;;4.40;99.90;;;;;;6241731;22;20348;-85
2023/02/23 07:26:44;;;;;;;38.03;26.53;;;4.40;99.90;;;;;;6239836;23;20363;-87
2023/02/23 07:29:11;;;;;;;41.88;26.65;;;4.60;99.90;;;;;;6239714;23;20360;-83
2023/02/23 07:31:37;;;;;;;42.97;26.47;;;4.50;99.90;;;;;;6236747;23;21174;-80
2023/02/23 07:34:02;;;;;;;38.87;26.33;;;4.80;99.90;;;;;;6239394;23;20636;-82
2023/02/23 07:36:28;;;;;;;40.57;27.23;;;4.70;99.90;;;;;;6240929;22;20427;-81
2023/02/23 07:38:54;;;;;;;42.75;27.13;;;4.60;99.90;;;;;;6240980;22;20976;-82
2023/02/23 07:41:21;;;;;;;43.78;27.52;;;4.70;99.90;;;;;;6238461;22;20352;-82
2023/02/23 07:43:46;;;;;;;40.90;26.50;;;4.70;99.90;;;;;;6238947;23;20418;-82
2023/02/23 07:46:14;;;;;;;39.97;25.65;;;4.90;99.90;;;;;;6239644;22;20356;-83
2023/02/23 07:48:43;;;;;;;36.42;24.02;;;5.00;99.90;;;;;;6240664;22;20352;-81
2023/02/23 07:51:11;;;;;;;39.30;24.60;;;5.20;99.90;;;;;;6237647;23;20356;-81
2023/02/23 07:53:38;;;;;;;44.72;27.15;;;5.30;99.90;;;;;;6240957;22;20368;-81
2023/02/23 07:56:05;;;;;;;39.28;25.92;;;5.10;99.90;;;;;;6239125;22;20405;-81
2023/02/23 07:58:31;;;;;;;36.30;24.67;;;5.20;99.90;;;;;;6239525;23;20359;-81
2023/02/23 08:00:57;;;;;;;39.33;24.13;;;5.40;99.90;;;;;;6246256;22;20368;-81
2023/02/23 08:03:22;;;;;;;38.90;23.52;;;5.70;99.90;;;;;;6251571;22;20918;-82
2023/02/23 08:05:48;;;;;;;36.85;23.15;;;5.80;99.90;;;;;;6250741;22;20461;-81
2023/02/23 08:08:14;;;;;;;34.00;23.20;;;5.90;99.90;;;;;;6249930;22;20348;-81
2023/02/23 08:10:40;;;;;;;35.57;21.87;;;6.30;99.90;;;;;;6249178;22;20368;-81
2023/02/23 08:13:05;;;;;;;38.83;23.43;;;6.70;99.90;;;;;;6256606;22;20466;-80
2023/02/23 08:15:31;;;;;;;33.90;21.38;;;6.70;99.90;;;;;;6257900;22;20413;-82
2023/02/23 08:17:57;;;;;;;31.40;20.65;;;6.80;99.90;;;;;;6257941;22;20347;-83
2023/02/23 08:20:23;;;;;;;32.40;21.65;;;7.10;99.90;;;;;;6257135;22;20404;-83
2023/02/23 08:22:53;;;;;;;34.95;21.67;;;7.20;99.90;;;;;;6258065;22;20822;-82
2023/02/23 08:25:19;;;;;;;37.97;23.67;;;7.30;99.90;;;;;;6253148;22;20408;-82
2023/02/23 08:27:46;;;;;;;35.95;22.52;;;7.10;99.90;;;;;;6251527;22;20332;-82
2023/02/23 08:30:13;;;;;;;36.25;23.15;;;7.30;99.90;;;;;;6243348;22;20478;-80
2023/02/23 08:32:58;;;;;;;34.08;21.40;;;7.30;99.90;;;;;;6240267;23;20687;-83
2023/02/23 08:36:20;;;;;;;;;;;;;;;;;;;;;
2023/02/23 08:39:33;;;;;;;32.25;21.27;;;7.60;99.90;;;;;;6236980;22;20502;-82
2023/02/23 08:43:00;;;;;;;;;;;;;;;;;;;;;
2023/02/23 08:45:41;;;;;;;31.50;21.98;;;8.20;99.90;;;;;;6238132;22;20854;-83
2023/02/23 08:48:12;;;;;;;32.70;22.13;;;7.90;99.90;;;;;;6241361;22;20671;-83
2023/02/23 08:50:40;;;;;;;35.25;22.23;;;7.70;99.90;;;;;;6240937;23;20406;-84
2023/02/23 08:53:31;;;;;;;35.13;23.15;;;7.90;99.90;;;;;;6241205;23;20376;-83
2023/02/23 08:56:16;;;;;;;32.40;20.73;;;7.70;99.90;;;;;;6242595;22;20363;-84
2023/02/23 08:58:42;;;;;;;35.13;22.23;;;7.80;99.90;;;;;;6240798;23;20361;-84
2023/02/23 09:01:30;;;;;;;34.45;21.88;;;7.80;99.90;;;;;;6241607;23;20387;-84
2023/02/23 09:04:14;;;;;;;36.43;22.10;;;7.60;99.90;;;;;;6243149;22;20644;-85
2023/02/23 09:06:40;;;;;;;32.55;20.95;;;7.70;99.90;;;;;;6241826;23;20441;-83
2023/02/23 09:09:06;;;;;;;36.90;22.77;;;7.70;99.90;;;;;;6242586;22;20385;-82
2023/02/23 09:11:43;;;;;;;30.70;20.90;;;7.60;99.90;;;;;;6243613;22;20399;-83
2023/02/23 09:14:18;;;;;;;33.23;21.33;;;8.40;99.90;;;;;;6242156;22;20883;-83
2023/02/23 09:17:00;;;;;;;32.13;20.92;;;8.30;99.90;;;;;;6240609;23;20349;-83
2023/02/23 09:19:43;;;;;;;31.13;20.63;;;8.60;99.90;;;;;;6239910;23;20378;-83
2023/02/23 09:22:29;;;;;;;30.65;21.02;;;8.70;99.90;;;;;;6241211;23;20357;-83
2023/02/23 09:25:26;;;;;;;28.90;18.98;;;8.80;99.90;;;;;;6235574;23;20371;-83
2023/02/23 09:27:58;;;;;;;31.13;20.00;;;9.70;99.90;;;;;;6241994;22;20332;-82
2023/02/23 09:30:30;;;;;;;30.35;19.70;;;9.70;99.90;;;;;;6239251;23;20348;-82
2023/02/23 09:32:58;;;;;;;30.63;19.40;;;9.90;99.90;;;;;;6240030;23;20376;-82
2023/02/23 09:35:24;;;;;;;27.92;18.45;;;10.10;99.90;;;;;;6247599;23;20348;-80
2023/02/23 09:38:06;;;;;;;;;;;;;;;;;;;;;
2023/02/23 09:44:33;;;;;;;29.30;19.33;;;10.80;99.90;;;;;;6027096;23;20377;-83
2023/02/23 09:47:39;;;;;;;;;;;;;;;;;;;;;
2023/02/23 09:51:17;;;;;;;;;;;;;;;;;;;;;
2023/02/23 09:57:36;;;;;;;;;;;;;;;;;;;;;
2023/02/23 10:00:46;;;;;;;28.25;19.20;;;10.60;99.90;;;;;;6148101;23;20439;-83
2023/02/23 10:04:36;;;;;;;;;;;;;;;;;;;;;
2023/02/23 10:06:59;;;;;;;34.10;21.23;;;10.60;99.90;;;;;;6164677;22;20799;-85
2023/02/23 10:09:30;;;;;;;26.27;20.48;;;10.30;99.90;;;;;;6242947;22;20344;-84
2023/02/23 10:12:10;;;;;;;29.37;20.83;;;10.20;99.90;;;;;;6240740;22;20352;-83
2023/02/23 10:15:22;;;;;;;30.20;21.00;;;10.40;99.90;;;;;;6237027;23;20708;-84
2023/02/23 10:18:03;;;;;;;32.17;21.00;;;10.20;99.90;;;;;;6242124;22;20430;-85
2023/02/23 10:20:57;;;;;;;30.50;20.45;;;10.60;99.90;;;;;;6243387;22;20416;-86
2023/02/23 10:23:29;;;;;;;30.00;20.42;;;11.40;99.90;;;;;;6243069;22;20351;-84
2023/02/23 10:26:00;;;;;;;31.80;20.67;;;11.50;99.90;;;;;;6242316;22;20340;-85
2023/02/23 10:28:31;;;;;;;27.13;19.60;;;11.50;99.90;;;;;;6241791;23;20407;-84
2023/02/23 10:30:57;;;;;;;27.38;18.73;;;12.00;99.90;;;;;;6243002;22;20355;-85
2023/02/23 10:33:35;;;;;;;27.05;19.00;;;12.30;99.90;;;;;;6242849;22;20396;-85
2023/02/23 10:36:15;;;;;;;29.25;19.50;;;12.50;99.90;;;;;;6241515;23;20383;-84
2023/02/23 10:38:41;;;;;;;29.38;19.38;;;12.50;99.90;;;;;;6241114;23;20356;-85
2023/02/23 10:41:09;;;;;;;30.73;19.08;;;12.20;99.90;;;;;;6241969;23;20791;-85
2023/02/23 10:43:35;;;;;;;28.77;20.25;;;12.50;99.90;;;;;;6241904;22;20340;-84
2023/02/23 10:46:03;;;;;;;32.00;19.88;;;13.10;99.90;;;;;;6243921;22;20783;-85
2023/02/23 10:48:38;;;;;;;29.73;18.70;;;12.80;99.90;;;;;;6242674;22;20376;-84
2023/02/23 10:51:11;;;;;;;31.15;19.52;;;13.20;99.90;;;;;;6240555;23;20371;-86
2023/02/23 10:53:38;;;;;;;26.98;19.65;;;13.40;99.90;;;;;;6241136;23;20376;-84
2023/02/23 10:56:06;;;;;;;29.80;19.25;;;13.60;99.90;;;;;;6242296;22;20376;-85
2023/02/23 10:58:47;;;;;;;28.70;18.97;;;13.90;99.90;;;;;;6240603;23;20612;-85
2023/02/23 11:01:14;;;;;;;29.60;19.38;;;13.70;99.90;;;;;;6241925;23;20359;-84
2023/02/23 11:03:51;;;;;;;29.63;19.58;;;13.80;99.90;;;;;;6242894;22;20348;-86
2023/02/23 11:06:38;;;;;;;28.42;19.02;;;13.60;99.90;;;;;;6244174;22;20348;-85
2023/02/23 11:09:30;;;;;;;28.45;19.10;;;13.60;99.90;;;;;;6249246;23;20336;-85
2023/02/23 11:11:59;;;;;;;28.85;19.77;;;13.50;99.90;;;;;;6247340;23;20439;-87
2023/02/23 11:14:29;;;;;;;28.15;19.35;;;13.00;99.90;;;;;;6251273;23;20813;-86
2023/02/23 11:16:56;;;;;;;26.80;19.80;;;13.20;99.90;;;;;;6251217;22;20351;-87
2023/02/23 11:19:35;;;;;;;28.80;19.60;;;13.20;99.90;;;;;;6247377;23;20367;-87
2023/02/23 11:22:04;;;;;;;31.73;20.67;;;13.00;99.90;;;;;;6250075;23;20352;-85
2023/02/23 11:24:36;;;;;;;30.58;21.65;;;12.70;99.90;;;;;;6245613;23;20356;-86
2023/02/23 11:27:20;;;;;;;34.00;22.42;;;12.20;99.90;;;;;;6249658;22;20340;-86
2023/02/23 11:29:49;;;;;;;28.73;21.83;;;11.90;99.90;;;;;;6246858;23;20359;-85
2023/02/23 11:32:18;;;;;;;31.45;23.13;;;11.80;99.90;;;;;;6248824;23;20711;-85
2023/02/23 11:34:48;;;;;;;33.90;24.45;;;11.60;99.90;;;;;;6251111;22;20343;-86
2023/02/23 11:37:17;;;;;;;32.17;22.90;;;11.20;99.90;;;;;;6246556;23;20348;-85
2023/02/23 11:40:01;;;;;;;31.08;23.75;;;11.10;99.90;;;;;;6248185;23;20364;-86
2023/02/23 11:42:32;;;;;;;35.87;24.90;;;11.10;99.90;;;;;;6247984;23;20679;-83
2023/02/23 11:45:14;;;;;;;33.63;23.63;;;11.00;99.90;;;;;;6253025;23;20348;-85
2023/02/23 11:47:45;;;;;;;33.23;23.20;;;11.30;99.90;;;;;;6242164;22;20353;-85
2023/02/23 11:50:32;;;;;;;30.77;21.90;;;11.70;99.90;;;;;;6243134;22;20340;-85
2023/02/23 11:53:27;;;;;;;31.63;22.63;;;12.00;99.90;;;;;;6239594;23;20823;-85
2023/02/23 11:55:56;;;;;;;32.38;21.60;;;11.90;99.90;;;;;;6240647;23;20391;-84
2023/02/23 11:58:24;;;;;;;31.85;22.55;;;11.90;99.90;;;;;;6239692;23;20843;-84
2023/02/23 12:01:00;;;;;;;27.10;21.30;;;12.20;99.90;;;;;;6242624;23;20379;-85
2023/02/23 12:03:30;;;;;;;29.70;21.63;;;12.50;99.90;;;;;;6241950;23;20387;-85
2023/02/23 12:05:58;;;;;;;30.90;21.52;;;12.70;99.90;;;;;;6244129;22;20344;-85
2023/02/23 12:08:46;;;;;;;30.50;21.33;;;12.80;99.90;;;;;;6241157;23;20363;-85
2023/02/23 12:11:24;;;;;;;28.90;21.27;;;12.80;99.90;;;;;;6242715;23;20394;-84
2023/02/23 12:14:01;;;;;;;29.92;21.52;;;12.70;99.90;;;;;;6243991;23;20375;-84
2023/02/23 12:16:56;;;;;;;29.25;22.60;;;12.60;99.90;;;;;;6242396;23;20344;-84
2023/02/23 12:19:33;;;;;;;32.33;21.43;;;12.50;99.90;;;;;;6235792;22;20369;-85
2023/02/23 12:22:04;;;;;;;28.92;22.10;;;12.40;99.90;;;;;;6242876;23;20428;-84
2023/02/23 12:24:33;;;;;;;29.90;22.15;;;12.50;99.90;;;;;;6244172;22;20375;-84
2023/02/23 12:27:25;;;;;;;31.67;22.10;;;12.50;99.90;;;;;;6244574;22;20818;-84
2023/02/23 12:30:12;;;;;;;32.33;22.27;;;12.40;99.90;;;;;;6226601;22;20348;-85
2023/02/23 12:33:18;;;;;;;29.77;22.65;;;12.50;99.90;;;;;;6244254;22;20380;-84
2023/02/23 12:35:46;;;;;;;31.17;22.48;;;11.90;99.90;;;;;;6248793;22;20451;-84
2023/02/23 12:38:41;;;;;;;30.73;22.63;;;12.10;99.90;;;;;;6244964;23;20360;-84
2023/02/23 12:41:23;;;;;;;32.10;22.33;;;12.30;99.90;;;;;;6246555;23;20912;-85
2023/02/23 12:44:25;;;;;;;32.53;22.33;;;12.40;99.90;;;;;;6253351;22;20368;-84
2023/02/23 12:46:54;;;;;;;31.08;23.30;;;12.00;99.90;;;;;;6247111;22;20750;-83
2023/02/23 12:49:43;;;;;;;34.90;22.65;;;12.10;99.90;;;;;;6243408;23;20344;-83
2023/02/23 12:52:26;;;;;;;29.38;23.30;;;12.30;99.90;;;;;;6239799;22;20368;-84
2023/02/23 12:54:52;;;;;;;33.05;23.30;;;12.20;99.90;;;;;;6244366;23;20363;-84
2023/02/23 12:57:43;;;;;;;31.30;23.02;;;12.40;99.90;;;;;;6247060;23;20360;-83
2023/02/23 13:00:48;;;;;;;30.38;22.25;;;12.40;99.90;;;;;;6246783;23;20399;-84
2023/02/23 13:03:55;;;;;;;31.00;22.70;;;12.60;99.90;;;;;;6130576;23;20496;-83
2023/02/23 13:06:39;;;;;;;35.92;23.45;;;12.30;99.90;;;;;;6038540;23;20382;-84
2023/02/23 13:09:32;;;;;;;32.45;24.27;;;12.00;99.90;;;;;;6222672;23;20498;-83
2023/02/23 13:12:11;;;;;;;35.63;24.27;;;11.90;99.90;;;;;;6248672;22;20340;-83
2023/02/23 13:15:22;;;;;;;33.65;24.15;;;12.00;99.90;;;;;;6249184;22;20363;-84
2023/02/23 13:18:08;;;;;;;35.30;23.73;;;12.30;99.90;;;;;;6125306;23;20384;-85
2023/02/23 13:20:39;;;;;;;33.80;24.52;;;12.20;99.90;;;;;;6239196;22;20344;-86
2023/02/23 13:23:09;;;;;;;33.20;24.27;;;12.10;99.90;;;;;;6251393;23;20438;-86
2023/02/23 13:25:54;;;;;;;37.50;26.60;;;11.90;99.90;;;;;;6252910;23;20807;-86
2023/02/23 13:28:34;;;;;;;35.95;26.83;;;11.50;99.90;;;;;;6250533;23;20390;-87
2023/02/23 13:31:00;;;;;;;34.80;26.58;;;11.80;99.90;;;;;;6252382;23;20357;-86
2023/02/23 13:33:33;;;;;;;35.45;26.20;;;12.00;99.90;;;;;;6252624;23;20392;-84
2023/02/23 13:36:02;;;;;;;35.97;28.25;;;12.20;99.90;;;;;;6253901;23;20358;-85
2023/02/23 13:38:41;;;;;;;38.47;29.33;;;11.90;99.90;;;;;;6253512;23;20372;-85
2023/02/23 13:41:16;;;;;;;40.67;31.13;;;11.50;99.90;;;;;;6255488;23;20352;-85
2023/02/23 13:43:55;;;;;;;39.40;30.63;;;11.30;99.90;;;;;;6253206;22;20415;-86
2023/02/23 13:46:43;;;;;;;40.25;32.00;;;11.30;99.90;;;;;;6253467;22;20379;-85
2023/02/23 13:49:20;;;;;;;37.90;30.15;;;11.20;99.90;;;;;;6255582;22;20744;-86
2023/02/23 13:51:54;;;;;;;41.45;31.15;;;11.30;99.90;;;;;;6251991;23;20348;-86
2023/02/23 13:54:34;;;;;;;42.00;31.63;;;11.20;99.90;;;;;;6254550;22;20372;-87
2023/02/23 13:57:17;;;;;;;42.72;32.22;;;11.20;99.90;;;;;;6253273;23;20442;-85
2023/02/23 13:59:44;;;;;;;42.83;32.70;;;11.00;99.90;;;;;;6252114;22;20432;-86
2023/02/23 14:02:22;;;;;;;48.10;33.17;;;10.70;99.90;;;;;;6253244;23;20359;-86
2023/02/23 14:04:49;;;;;;;44.65;33.40;;;10.60;99.90;;;;;;6252925;23;20357;-86
2023/02/23 14:07:39;;;;;;;44.45;33.15;;;10.80;99.90;;;;;;6254053;23;20353;-86
2023/02/23 14:10:23;;;;;;;45.05;33.20;;;10.80;99.90;;;;;;6251785;23;20437;-86
2023/02/23 14:13:30;;;;;;;45.85;33.25;;;10.90;99.90;;;;;;6245963;22;21194;-85
2023/02/23 14:16:14;;;;;;;46.20;35.15;;;10.90;99.90;;;;;;6157736;23;20361;-85
2023/02/23 14:18:52;;;;;;;53.72;35.42;;;10.90;99.90;;;;;;6138755;23;20411;-86
2023/02/23 14:21:28;;;;;;;48.50;35.85;;;10.60;99.90;;;;;;6213584;23;20364;-86
2023/02/23 14:24:20;;;;;;;50.10;36.92;;;10.60;99.90;;;;;;6252172;23;20355;-86
2023/02/23 14:27:10;;;;;;;49.15;36.67;;;10.50;99.90;;;;;;6251904;22;20396;-88
2023/02/23 14:29:42;;;;;;;50.70;37.93;;;10.50;99.90;;;;;;6251099;23;20372;-86
2023/02/23 14:32:14;;;;;;;53.15;37.92;;;10.40;99.90;;;;;;6249978;23;20671;-87
2023/02/23 14:34:50;;;;;;;52.17;38.15;;;10.30;99.90;;;;;;6251991;23;20726;-86
2023/02/23 14:37:41;;;;;;;56.30;37.38;;;10.40;99.90;;;;;;6250757;23;20431;-85
2023/02/23 14:40:23;;;;;;;49.73;36.20;;;10.50;99.90;;;;;;6233014;22;20348;-86
2023/02/23 14:42:51;;;;;;;51.60;38.17;;;10.40;99.90;;;;;;6252084;22;20352;-86